createdAt,value
2022-08-26T00:00:21.272Z,101279.00
2022-08-26T00:02:49.541Z,101279.00
2022-08-26T00:05:18.472Z,101278.00
2022-08-26T00:07:47.763Z,101284.00
2022-08-26T00:10:17.084Z,101289.00
2022-08-26T00:12:45.879Z,101292.00
2022-08-26T00:15:18.972Z,101296.00
2022-08-26T00:17:50.442Z,101298.00
2022-08-26T00:20:22.331Z,101306.00
2022-08-26T00:22:50.737Z,101296.00
2022-08-26T00:25:19.812Z,101295.00
2022-08-26T00:27:49.006Z,101307.00
2022-08-26T00:30:22.744Z,101298.00
2022-08-26T00:32:54.277Z,101301.00
2022-08-26T00:35:23.159Z,101288.00
2022-08-26T00:37:51.962Z,101297.00
2022-08-26T00:40:23.429Z,101296.00
2022-08-26T00:42:51.638Z,101296.00
2022-08-26T00:45:19.982Z,101295.00
2022-08-26T00:47:56.110Z,101295.00
2022-08-26T00:50:32.590Z,101306.00
2022-08-26T00:53:04.205Z,101299.00
2022-08-26T00:55:38.388Z,101296.00
2022-08-26T00:58:08.201Z,101301.00
2022-08-26T01:00:36.506Z,101295.00
2022-08-26T01:03:11.446Z,101294.00
2022-08-26T01:05:40.636Z,101293.00
2022-08-26T01:08:08.863Z,101302.00
2022-08-26T01:10:37.239Z,101301.00
2022-08-26T01:13:11.008Z,101291.00
2022-08-26T01:15:46.002Z,101303.00
2022-08-26T01:18:17.126Z,101299.00
2022-08-26T01:20:57.789Z,101306.00
2022-08-26T01:23:29.407Z,101300.00
2022-08-26T01:26:05.105Z,101293.00
2022-08-26T01:28:35.558Z,101307.00
2022-08-26T01:31:06.705Z,101301.00
2022-08-26T01:33:42.522Z,101291.00
2022-08-26T01:36:11.135Z,101293.00
2022-08-26T01:38:41.227Z,101302.00
2022-08-26T01:41:19.663Z,101300.00
2022-08-26T01:43:52.426Z,101301.00
2022-08-26T01:46:23.683Z,101305.00
2022-08-26T01:48:56.138Z,101301.00
2022-08-26T01:51:27.393Z,101303.00
2022-08-26T01:53:57.319Z,101309.00
2022-08-26T01:56:33.466Z,101307.00
2022-08-26T01:59:09.448Z,101302.00
2022-08-26T02:01:39.255Z,101309.00
2022-08-26T02:04:17.555Z,101299.00
2022-08-26T02:06:46.991Z,101302.00
2022-08-26T02:09:18.254Z,101307.00
2022-08-26T02:11:49.035Z,101305.00
2022-08-26T02:14:23.509Z,101304.00
2022-08-26T02:16:56.247Z,101307.00
2022-08-26T02:19:31.280Z,101307.00
2022-08-26T02:22:02.731Z,101310.00
2022-08-26T02:24:50.389Z,101317.00
2022-08-26T02:27:22.778Z,101308.00
2022-08-26T02:29:56.963Z,101316.00
2022-08-26T02:32:26.116Z,101316.00
2022-08-26T02:34:55.287Z,101317.00
2022-08-26T02:37:23.489Z,101315.00
2022-08-26T02:39:53.131Z,101320.00
2022-08-26T02:42:21.486Z,101312.00
2022-08-26T02:44:50.498Z,101291.00
2022-08-26T02:47:18.939Z,101313.00
2022-08-26T02:49:47.678Z,101271.00
2022-08-26T02:52:16.308Z,101310.00
2022-08-26T02:54:45.459Z,101312.00
2022-08-26T02:57:15.194Z,101307.00
2022-08-26T02:59:43.600Z,101309.00
2022-08-26T03:02:12.797Z,101306.00
2022-08-26T03:04:58.145Z,101306.00
2022-08-26T03:07:31.093Z,101299.00
2022-08-26T03:09:59.547Z,101304.00
2022-08-26T03:12:29.646Z,101307.00
2022-08-26T03:14:58.131Z,101308.00
2022-08-26T03:17:27.026Z,101307.00
2022-08-26T03:19:57.225Z,101312.00
2022-08-26T03:22:27.094Z,101301.00
2022-08-26T03:24:55.750Z,101312.00
2022-08-26T03:27:24.033Z,101311.00
2022-08-26T03:30:11.799Z,101302.00
2022-08-26T03:32:41.384Z,101299.00
2022-08-26T03:35:10.633Z,101298.00
2022-08-26T03:37:39.291Z,101302.00
2022-08-26T03:40:10.997Z,101303.00
2022-08-26T03:42:40.807Z,101297.00
2022-08-26T03:45:16.126Z,101310.00
2022-08-26T03:47:44.714Z,101312.00
2022-08-26T03:50:17.701Z,101304.00
2022-08-26T03:52:51.764Z,101302.00
2022-08-26T03:55:23.755Z,101304.00
2022-08-26T03:57:52.355Z,101300.00
2022-08-26T04:00:22.123Z,101307.00
2022-08-26T04:02:53.168Z,101307.00
2022-08-26T04:05:23.394Z,101301.00
2022-08-26T04:07:52.521Z,101303.00
2022-08-26T04:10:28.522Z,101303.00
2022-08-26T04:12:58.815Z,101303.00
2022-08-26T04:15:29.735Z,101304.00
2022-08-26T04:17:58.265Z,101298.00
2022-08-26T04:20:26.877Z,101295.00
2022-08-26T04:22:55.187Z,101289.00
2022-08-26T04:25:24.265Z,101302.00
2022-08-26T04:27:52.775Z,101301.00
2022-08-26T04:30:21.280Z,101291.00
2022-08-26T04:32:51.015Z,101290.00
2022-08-26T04:35:25.462Z,101284.00
2022-08-26T04:37:55.445Z,101290.00
2022-08-26T04:40:24.300Z,101293.00
2022-08-26T04:42:54.284Z,101289.00
2022-08-26T04:45:23.029Z,101291.00
2022-08-26T04:47:56.354Z,101301.00
2022-08-26T04:50:26.950Z,101306.00
2022-08-26T04:52:56.167Z,101305.00
2022-08-26T04:55:37.264Z,101302.00
2022-08-26T04:58:10.383Z,101312.00
2022-08-26T05:00:39.541Z,101301.00
2022-08-26T05:03:10.472Z,101317.00
2022-08-26T05:05:41.276Z,101320.00
2022-08-26T05:08:11.304Z,101315.00
2022-08-26T05:10:44.470Z,101322.00
2022-08-26T05:13:15.546Z,101323.00
2022-08-26T05:15:46.040Z,101327.00
2022-08-26T05:18:17.825Z,101319.00
2022-08-26T05:20:50.890Z,101318.00
2022-08-26T05:23:22.694Z,101304.00
2022-08-26T05:25:58.337Z,101315.00
2022-08-26T05:28:28.566Z,101315.00
2022-08-26T05:30:57.560Z,101313.00
2022-08-26T05:33:27.260Z,101319.00
2022-08-26T05:35:55.450Z,101336.00
2022-08-26T05:38:24.119Z,101339.00
2022-08-26T05:40:53.489Z,101337.00
2022-08-26T05:43:22.857Z,101341.00
2022-08-26T05:45:52.016Z,101338.00
2022-08-26T05:48:22.642Z,101345.00
2022-08-26T05:50:54.739Z,101343.00
2022-08-26T05:53:26.013Z,101334.00
2022-08-26T05:55:56.212Z,101343.00
2022-08-26T05:58:27.095Z,101344.00
2022-08-26T06:01:01.699Z,101329.00
2022-08-26T06:03:33.946Z,101341.00
2022-08-26T06:06:11.752Z,101341.00
2022-08-26T06:08:44.842Z,101349.00
2022-08-26T06:11:18.389Z,101348.00
2022-08-26T06:13:47.527Z,101360.00
2022-08-26T06:16:20.340Z,101361.00
2022-08-26T06:18:50.684Z,101367.00
2022-08-26T06:21:24.504Z,101351.00
2022-08-26T06:24:14.436Z,101355.00
2022-08-26T06:26:50.585Z,101362.00
2022-08-26T06:29:24.347Z,101339.00
2022-08-26T06:31:53.784Z,101358.00
2022-08-26T06:34:22.549Z,101346.00
2022-08-26T06:36:57.897Z,101370.00
2022-08-26T06:39:26.452Z,101363.00
2022-08-26T06:41:56.073Z,101368.00
2022-08-26T06:44:24.303Z,101368.00
2022-08-26T06:46:52.601Z,101372.00
2022-08-26T06:49:26.910Z,101374.00
2022-08-26T06:51:59.184Z,101370.00
2022-08-26T06:54:27.953Z,101363.00
2022-08-26T06:56:57.496Z,101379.00
2022-08-26T06:59:26.406Z,101386.00
2022-08-26T07:01:55.379Z,101392.00
2022-08-26T07:04:24.970Z,101348.00
2022-08-26T07:06:58.393Z,101389.00
2022-08-26T07:09:30.363Z,101388.00
2022-08-26T07:11:59.587Z,101381.00
2022-08-26T07:14:27.961Z,101379.00
2022-08-26T07:16:56.753Z,101390.00
2022-08-26T07:19:29.778Z,101379.00
2022-08-26T07:22:02.087Z,101392.00
2022-08-26T07:24:31.117Z,101394.00
2022-08-26T07:27:02.910Z,101390.00
2022-08-26T07:29:31.487Z,101403.00
2022-08-26T07:32:00.004Z,101401.00
2022-08-26T07:34:28.667Z,101402.00
2022-08-26T07:36:58.792Z,101409.00
2022-08-26T07:39:31.591Z,101412.00
2022-08-26T07:42:01.635Z,101411.00
2022-08-26T07:44:36.018Z,101407.00
2022-08-26T07:47:10.477Z,101416.00
2022-08-26T07:49:52.987Z,101415.00
2022-08-26T07:52:26.371Z,101427.00
2022-08-26T07:54:59.169Z,101427.00
2022-08-26T07:57:28.399Z,101431.00
2022-08-26T07:59:57.658Z,101437.00
2022-08-26T08:02:28.133Z,101437.00
2022-08-26T08:04:57.884Z,101424.00
2022-08-26T08:07:38.795Z,101434.00
2022-08-26T08:10:20.875Z,101440.00
2022-08-26T08:12:50.090Z,101448.00
2022-08-26T08:15:21.163Z,101438.00
2022-08-26T08:17:51.501Z,101449.00
2022-08-26T08:20:22.092Z,101444.00
2022-08-26T08:22:52.402Z,101453.00
2022-08-26T08:25:24.654Z,101446.00
2022-08-26T08:27:53.160Z,101439.00
2022-08-26T08:30:23.367Z,101445.00
2022-08-26T08:32:52.448Z,101452.00
2022-08-26T08:35:22.713Z,101456.00
2022-08-26T08:37:54.431Z,101452.00
2022-08-26T08:40:27.230Z,101452.00
2022-08-26T08:43:00.903Z,101449.00
2022-08-26T08:45:37.227Z,101434.00
2022-08-26T08:48:12.031Z,101424.00
2022-08-26T08:50:46.076Z,101443.00
2022-08-26T08:53:19.169Z,101431.00
2022-08-26T08:56:05.449Z,101440.00
2022-08-26T08:58:51.913Z,101435.00
2022-08-26T09:01:31.413Z,101438.00
2022-08-26T09:04:25.154Z,101443.00
2022-08-26T09:09:33.110Z,101435.00
2022-08-26T09:12:03.905Z,101457.00
2022-08-26T09:14:32.860Z,101452.00
2022-08-26T09:17:13.267Z,101447.00
2022-08-26T09:19:47.897Z,101450.00
2022-08-26T09:22:31.058Z,101450.00
2022-08-26T09:24:59.659Z,101455.00
2022-08-26T09:27:45.619Z,101466.00
2022-08-26T09:30:19.835Z,101458.00
2022-08-26T09:33:01.646Z,101463.00
2022-08-26T09:35:34.053Z,101462.00
2022-08-26T09:38:02.995Z,101465.00
2022-08-26T09:40:35.386Z,101467.00
2022-08-26T09:43:22.063Z,101476.00
2022-08-26T09:45:58.388Z,101470.00
2022-08-26T09:48:37.443Z,101466.00
2022-08-26T09:51:29.782Z,101469.00
2022-08-26T09:54:02.001Z,101468.00
2022-08-26T09:56:33.154Z,101468.00
2022-08-26T09:59:03.620Z,101463.00
2022-08-26T10:01:38.235Z,101463.00
2022-08-26T10:04:11.371Z,101461.00
2022-08-26T10:06:44.503Z,101464.00
2022-08-26T10:09:18.915Z,101468.00
2022-08-26T10:11:51.734Z,101467.00
2022-08-26T10:14:29.451Z,101460.00
2022-08-26T10:17:05.393Z,101470.00
2022-08-26T10:19:55.567Z,101464.00
2022-08-26T10:22:29.336Z,101462.00
2022-08-26T10:25:03.264Z,101458.00
2022-08-26T10:27:51.257Z,101465.00
2022-08-26T10:30:25.882Z,101456.00
2022-08-26T10:32:59.211Z,101466.00
2022-08-26T10:35:28.183Z,101471.00
2022-08-26T10:38:03.962Z,101471.00
2022-08-26T10:40:48.961Z,101465.00
2022-08-26T10:43:23.540Z,101474.00
2022-08-26T10:46:00.674Z,101463.00
2022-08-26T10:48:43.489Z,101469.00
2022-08-26T10:51:14.374Z,101466.00
2022-08-26T10:53:52.791Z,101475.00
2022-08-26T10:56:41.844Z,101476.00
2022-08-26T10:59:21.430Z,101471.00
2022-08-26T11:01:58.928Z,101472.00
2022-08-26T11:04:47.710Z,101468.00
2022-08-26T11:07:42.787Z,101473.00
2022-08-26T11:10:42.553Z,101472.00
2022-08-26T11:13:12.107Z,101472.00
2022-08-26T11:16:09.355Z,101478.00
2022-08-26T11:18:45.843Z,101483.00
2022-08-26T11:21:52.959Z,101474.00
2022-08-26T11:25:15.687Z,101495.00
2022-08-26T11:28:07.721Z,101494.00
2022-08-26T11:30:57.512Z,101488.00
2022-08-26T11:33:59.456Z,101479.00
2022-08-26T11:36:59.730Z,101480.00
2022-08-26T11:39:36.830Z,101479.00
2022-08-26T11:42:24.802Z,101475.00
2022-08-26T11:44:58.182Z,101455.00
2022-08-26T11:47:32.225Z,101461.00
2022-08-26T11:50:16.377Z,101463.00
2022-08-26T11:52:54.050Z,101459.00
2022-08-26T11:55:23.428Z,101454.00
2022-08-26T11:57:57.927Z,101456.00
2022-08-26T12:00:33.501Z,101453.00
2022-08-26T12:03:08.524Z,101452.00
2022-08-26T12:05:45.797Z,101454.00
2022-08-26T12:08:18.262Z,101464.00
2022-08-26T12:10:48.265Z,101466.00
2022-08-26T12:13:26.707Z,101470.00
2022-08-26T12:15:58.725Z,101461.00
2022-08-26T12:18:34.330Z,101468.00
2022-08-26T12:21:16.189Z,101471.00
2022-08-26T12:23:47.872Z,101476.00
2022-08-26T12:26:31.901Z,101473.00
2022-08-26T12:29:19.752Z,101474.00
2022-08-26T12:31:49.779Z,101471.00
2022-08-26T12:34:19.205Z,101474.00
2022-08-26T12:36:54.060Z,101482.00
2022-08-26T12:39:29.143Z,101476.00
2022-08-26T12:41:59.787Z,101486.00
2022-08-26T12:44:53.361Z,101492.00
2022-08-26T12:47:33.859Z,101492.00
2022-08-26T12:50:19.311Z,101497.00
2022-08-26T12:52:59.899Z,101493.00
2022-08-26T12:55:39.529Z,101492.00
2022-08-26T12:58:26.624Z,101487.00
2022-08-26T13:00:57.325Z,101479.00
2022-08-26T13:03:43.282Z,101489.00
2022-08-26T13:06:27.911Z,101483.00
2022-08-26T13:08:59.837Z,101484.00
2022-08-26T13:11:30.696Z,101492.00
2022-08-26T13:14:02.276Z,101484.00
2022-08-26T13:16:36.123Z,101475.00
2022-08-26T13:19:10.319Z,101470.00
2022-08-26T13:21:47.909Z,101476.00
2022-08-26T13:24:21.232Z,101461.00
2022-08-26T13:26:51.319Z,101466.00
2022-08-26T13:29:20.566Z,101471.00
2022-08-26T13:31:49.223Z,101463.00
2022-08-26T13:34:21.515Z,101464.00
2022-08-26T13:36:54.127Z,101465.00
2022-08-26T13:39:24.674Z,101465.00
2022-08-26T13:41:53.754Z,101463.00
2022-08-26T13:44:22.710Z,101471.00
2022-08-26T13:46:51.084Z,101464.00
2022-08-26T13:49:19.394Z,101457.00
2022-08-26T13:51:47.686Z,101461.00
2022-08-26T13:54:15.914Z,101455.00
2022-08-26T13:56:45.608Z,101440.00
2022-08-26T13:59:13.903Z,101461.00
2022-08-26T14:01:42.407Z,101459.00
2022-08-26T14:04:10.743Z,101456.00
2022-08-26T14:06:39.232Z,101452.00
2022-08-26T14:09:07.601Z,101455.00
2022-08-26T14:11:50.665Z,101453.00
2022-08-26T14:14:25.078Z,101451.00
2022-08-26T14:16:59.336Z,101440.00
2022-08-26T14:19:29.709Z,101446.00
2022-08-26T14:21:59.294Z,101453.00
2022-08-26T14:24:27.639Z,101462.00
2022-08-26T14:26:55.933Z,101475.00
2022-08-26T14:29:26.298Z,101475.00
2022-08-26T14:31:56.183Z,101468.00
2022-08-26T14:34:26.141Z,101469.00
2022-08-26T14:36:54.409Z,101469.00
2022-08-26T14:39:22.692Z,101470.00
2022-08-26T14:41:55.952Z,101466.00
2022-08-26T14:44:29.075Z,101461.00
2022-08-26T14:46:57.887Z,101459.00
2022-08-26T14:49:27.397Z,101459.00
2022-08-26T14:51:56.451Z,101462.00
2022-08-26T14:54:25.041Z,101469.00
2022-08-26T14:56:55.977Z,101460.00
2022-08-26T14:59:28.948Z,101467.00
2022-08-26T15:01:58.288Z,101462.00
2022-08-26T15:04:26.851Z,101473.00
2022-08-26T15:06:57.399Z,101470.00
2022-08-26T15:09:26.993Z,101471.00
2022-08-26T15:11:57.058Z,101472.00
2022-08-26T15:14:30.922Z,101483.00
2022-08-26T15:17:01.328Z,101481.00
2022-08-26T15:19:30.144Z,101480.00
2022-08-26T15:21:58.733Z,101491.00
2022-08-26T15:24:28.891Z,101484.00
2022-08-26T15:26:57.595Z,101490.00
2022-08-26T15:29:27.650Z,101481.00
2022-08-26T15:31:57.347Z,101471.00
2022-08-26T15:34:27.050Z,101477.00
2022-08-26T15:36:56.257Z,101483.00
2022-08-26T15:39:25.154Z,101482.00
2022-08-26T15:41:56.132Z,101477.00
2022-08-26T15:44:29.001Z,101481.00
2022-08-26T15:46:58.796Z,101478.00
2022-08-26T15:49:28.118Z,101484.00
2022-08-26T15:51:56.827Z,101476.00
2022-08-26T15:54:45.701Z,101473.00
2022-08-26T15:57:16.439Z,101479.00
2022-08-26T15:59:48.926Z,101463.00
2022-08-26T16:02:18.693Z,101470.00
2022-08-26T16:04:47.206Z,101479.00
2022-08-26T16:07:15.700Z,101475.00
2022-08-26T16:09:44.072Z,101468.00
2022-08-26T16:12:12.543Z,101463.00
2022-08-26T16:14:42.808Z,101460.00
2022-08-26T16:17:13.186Z,101472.00
2022-08-26T16:19:41.647Z,101451.00
2022-08-26T16:22:10.047Z,101470.00
2022-08-26T16:24:38.858Z,101467.00
2022-08-26T16:27:08.424Z,101465.00
2022-08-26T16:29:39.790Z,101469.00
2022-08-26T16:32:09.187Z,101468.00
2022-08-26T16:34:39.111Z,101462.00
2022-08-26T16:37:24.646Z,101464.00
2022-08-26T16:39:53.061Z,101459.00
2022-08-26T16:42:21.657Z,101471.00
2022-08-26T16:44:49.988Z,101453.00
2022-08-26T16:47:19.517Z,101460.00
2022-08-26T16:49:49.727Z,101463.00
2022-08-26T16:52:19.192Z,101465.00
2022-08-26T16:54:48.519Z,101474.00
2022-08-26T16:57:17.330Z,101477.00
2022-08-26T16:59:46.188Z,101475.00
2022-08-26T17:02:14.553Z,101471.00
2022-08-26T17:04:46.176Z,101484.00
2022-08-26T17:07:18.082Z,101476.00
2022-08-26T17:09:46.376Z,101472.00
2022-08-26T17:12:14.747Z,101468.00
2022-08-26T17:14:43.291Z,101465.00
2022-08-26T17:17:14.667Z,101475.00
2022-08-26T17:19:47.239Z,101477.00
2022-08-26T17:22:17.623Z,101481.00
2022-08-26T17:24:45.984Z,101484.00
2022-08-26T17:27:14.659Z,101486.00
2022-08-26T17:29:42.878Z,101483.00
2022-08-26T17:32:11.131Z,101483.00
2022-08-26T17:34:39.466Z,101490.00
2022-08-26T17:37:08.258Z,101485.00
2022-08-26T17:39:42.534Z,101488.00
2022-08-26T17:42:11.764Z,101497.00
2022-08-26T17:44:40.543Z,101487.00
2022-08-26T17:47:08.764Z,101491.00
2022-08-26T17:49:36.944Z,101493.00
2022-08-26T17:52:10.953Z,101494.00
2022-08-26T17:54:41.286Z,101494.00
2022-08-26T17:57:10.694Z,101499.00
2022-08-26T17:59:41.062Z,101501.00
2022-08-26T18:02:09.332Z,101498.00
2022-08-26T18:04:37.544Z,101498.00
2022-08-26T18:07:06.295Z,101507.00
2022-08-26T18:09:35.151Z,101510.00
2022-08-26T18:12:06.318Z,101509.00
2022-08-26T18:14:35.333Z,101505.00
2022-08-26T18:17:04.958Z,101513.00
2022-08-26T18:19:33.284Z,101517.00
2022-08-26T18:22:01.523Z,101506.00
2022-08-26T18:24:30.399Z,101517.00
2022-08-26T18:26:59.550Z,101516.00
2022-08-26T18:29:29.373Z,101525.00
2022-08-26T18:32:00.635Z,101519.00
2022-08-26T18:34:32.062Z,101510.00
2022-08-26T18:37:00.734Z,101523.00
2022-08-26T18:39:29.393Z,101521.00
2022-08-26T18:42:02.723Z,101530.00
2022-08-26T18:44:32.820Z,101538.00
2022-08-26T18:47:01.504Z,101541.00
2022-08-26T18:49:30.178Z,101534.00
2022-08-26T18:51:58.659Z,101526.00
2022-08-26T18:54:27.414Z,101538.00
2022-08-26T18:56:55.864Z,101533.00
2022-08-26T18:59:26.854Z,101529.00
2022-08-26T19:02:02.110Z,101534.00
2022-08-26T19:04:30.822Z,101535.00
2022-08-26T19:06:59.493Z,101537.00
2022-08-26T19:09:31.600Z,101544.00
2022-08-26T19:12:00.572Z,101547.00
2022-08-26T19:14:37.079Z,101544.00
2022-08-26T19:17:09.064Z,101550.00
2022-08-26T19:19:38.594Z,101549.00
2022-08-26T19:22:07.678Z,101556.00
2022-08-26T19:24:38.063Z,101549.00
2022-08-26T19:27:09.713Z,101543.00
2022-08-26T19:29:40.386Z,101547.00
2022-08-26T19:32:12.430Z,101548.00
2022-08-26T19:34:42.556Z,101550.00
2022-08-26T19:37:11.941Z,101540.00
2022-08-26T19:39:40.701Z,101518.00
2022-08-26T19:42:12.052Z,101536.00
2022-08-26T19:47:46.461Z,101534.00
2022-08-26T19:50:24.757Z,101539.00
2022-08-26T19:53:03.023Z,101549.00
2022-08-26T19:55:34.843Z,101545.00
2022-08-26T19:58:03.867Z,101544.00
2022-08-26T20:00:34.607Z,101539.00
2022-08-26T20:03:04.882Z,101537.00
2022-08-26T20:05:35.070Z,101537.00
2022-08-26T20:08:07.275Z,101539.00
2022-08-26T20:10:44.214Z,101549.00
2022-08-26T20:13:13.427Z,101551.00
2022-08-26T20:15:42.802Z,101532.00
2022-08-26T20:18:29.968Z,101539.00
2022-08-26T20:21:16.416Z,101534.00
2022-08-26T20:23:46.032Z,101527.00
2022-08-26T20:26:14.559Z,101529.00
2022-08-26T20:28:43.014Z,101533.00
2022-08-26T20:31:12.489Z,101534.00
2022-08-26T20:33:46.347Z,101531.00
2022-08-26T20:36:15.868Z,101538.00
2022-08-26T20:38:45.309Z,101527.00
2022-08-26T20:41:14.564Z,101527.00
2022-08-26T20:43:43.691Z,101541.00
2022-08-26T20:46:18.042Z,101532.00
2022-08-26T20:48:49.972Z,101531.00
2022-08-26T20:51:20.376Z,101530.00
2022-08-26T20:53:48.624Z,101536.00
2022-08-26T20:56:24.423Z,101538.00
2022-08-26T20:58:55.557Z,101539.00
2022-08-26T21:01:26.861Z,101543.00
2022-08-26T21:03:58.087Z,101543.00
2022-08-26T21:06:26.807Z,101544.00
2022-08-26T21:08:57.169Z,101541.00
2022-08-26T21:11:26.597Z,101535.00
2022-08-26T21:14:16.721Z,101551.00
2022-08-26T21:16:44.758Z,101549.00
2022-08-26T21:19:19.197Z,101548.00
2022-08-26T21:21:49.909Z,101546.00
2022-08-26T21:24:19.083Z,101543.00
2022-08-26T21:26:48.959Z,101553.00
2022-08-26T21:29:17.743Z,101551.00
2022-08-26T21:31:46.990Z,101556.00
2022-08-26T21:34:20.220Z,101555.00
2022-08-26T21:36:50.273Z,101560.00
2022-08-26T21:39:19.742Z,101553.00
2022-08-26T21:41:48.487Z,101550.00
2022-08-26T21:44:18.572Z,101554.00
2022-08-26T21:46:48.064Z,101556.00
2022-08-26T21:49:18.293Z,101549.00
2022-08-26T21:51:49.125Z,101558.00
2022-08-26T21:54:18.667Z,101561.00
2022-08-26T21:56:48.555Z,101566.00
2022-08-26T21:59:20.561Z,101557.00
2022-08-26T22:01:49.207Z,101558.00
2022-08-26T22:04:19.850Z,101556.00
2022-08-26T22:06:57.662Z,101546.00
2022-08-26T22:09:29.182Z,101563.00
2022-08-26T22:11:58.689Z,101560.00
2022-08-26T22:14:30.930Z,101562.00
2022-08-26T22:17:02.882Z,101561.00
2022-08-26T22:19:34.007Z,101566.00
2022-08-26T22:22:07.582Z,101570.00
2022-08-26T22:24:36.665Z,101562.00
2022-08-26T22:27:05.997Z,101569.00
2022-08-26T22:29:34.635Z,101576.00
2022-08-26T22:32:03.552Z,101578.00
2022-08-26T22:34:33.968Z,101574.00
2022-08-26T22:37:03.322Z,101574.00
2022-08-26T22:39:32.274Z,101572.00
2022-08-26T22:42:03.861Z,101580.00
2022-08-26T22:44:36.713Z,101566.00
2022-08-26T22:47:05.510Z,101557.00
2022-08-26T22:49:35.149Z,101561.00
2022-08-26T22:52:04.447Z,101565.00
2022-08-26T22:54:34.193Z,101562.00
2022-08-26T22:57:03.016Z,101562.00
2022-08-26T22:59:32.220Z,101564.00
2022-08-26T23:02:00.740Z,101558.00
2022-08-26T23:04:29.765Z,101564.00
2022-08-26T23:06:59.757Z,101558.00
2022-08-26T23:09:28.234Z,101567.00
2022-08-26T23:11:57.188Z,101561.00
2022-08-26T23:14:27.236Z,101569.00
2022-08-26T23:16:55.789Z,101565.00
2022-08-26T23:19:24.953Z,101557.00
2022-08-26T23:21:53.481Z,101559.00
2022-08-26T23:24:23.782Z,101567.00
2022-08-26T23:26:52.274Z,101562.00
2022-08-26T23:29:20.840Z,101556.00
2022-08-26T23:31:49.461Z,101557.00
2022-08-26T23:34:35.456Z,101558.00
2022-08-26T23:37:06.165Z,101558.00
2022-08-26T23:39:38.047Z,101547.00
2022-08-26T23:42:08.373Z,101548.00
2022-08-26T23:44:36.850Z,101556.00
2022-08-26T23:47:06.166Z,101544.00
2022-08-26T23:49:35.909Z,101550.00
2022-08-26T23:52:23.605Z,101546.00
2022-08-26T23:54:53.499Z,101544.00
2022-08-26T23:57:24.650Z,101526.00
2022-08-26T23:59:53.638Z,101550.00
